Time;durP1;ratioP1;P1;durP2;ratioP2;P2;SDS_P1;SDS_P2;PMS_P1;PMS_P2;Temp;Humidity;BMP_temperature;BMP_pressure;BME280_temperature;BME280_humidity;BME280_pressure;Samples;Min_cycle;Max_cycle;Signal;HPM_P1;HPM_P2
2023/05/14 00:02:05;;;;;;;5.63;5.13;;;;;;;15.80;68.31;100391.69;5021110;28;20417;-74
2023/05/14 00:04:30;;;;;;;6.40;5.63;;;;;;;15.81;68.34;100396.88;5047233;28;20791;-74
2023/05/14 00:06:55;;;;;;;6.03;5.43;;;;;;;15.79;68.46;100390.06;5051749;28;20393;-74
2023/05/14 00:09:20;;;;;;;6.73;5.97;;;;;;;15.78;68.47;100385.69;5050198;28;20389;-73
2023/05/14 00:11:46;;;;;;;7.10;6.50;;;;;;;15.73;68.56;100383.81;5030016;28;20897;-74
2023/05/14 00:14:12;;;;;;;7.87;5.33;;;;;;;15.73;68.46;100378.34;5029890;28;20405;-74
2023/05/14 00:16:37;;;;;;;5.60;5.10;;;;;;;15.69;68.48;100382.72;5047710;28;20582;-74
2023/05/14 00:19:02;;;;;;;6.17;4.97;;;;;;;15.66;68.46;100374.28;5037082;28;20427;-74
2023/05/14 00:21:27;;;;;;;5.97;5.17;;;;;;;15.65;68.76;100376.19;5045935;28;20416;-74
2023/05/14 00:23:53;;;;;;;5.57;5.18;;;;;;;15.62;69.00;100371.28;5051416;28;20823;-74
2023/05/14 00:26:19;;;;;;;6.17;4.90;;;;;;;15.63;69.17;100369.38;5045234;28;20789;-74
2023/05/14 00:28:44;;;;;;;5.75;5.25;;;;;;;15.63;69.28;100369.38;5049827;28;20398;-74
2023/05/14 00:31:10;;;;;;;6.10;5.60;;;;;;;15.64;69.26;100363.66;5047311;28;20441;-73
2023/05/14 00:33:35;;;;;;;5.30;4.83;;;;;;;15.68;69.42;100363.88;5023666;28;20447;-74
2023/05/14 00:36:00;;;;;;;5.43;4.93;;;;;;;15.72;69.44;100367.69;5049970;28;20471;-74
2023/05/14 00:38:27;;;;;;;9.60;4.83;;;;;;;15.74;69.36;100360.03;5049854;28;20408;-74
2023/05/14 00:40:52;;;;;;;5.22;4.72;;;;;;;15.75;69.54;100361.66;5047369;28;20425;-74
2023/05/14 00:43:18;;;;;;;5.65;4.90;;;;;;;15.76;69.54;100361.38;5024319;28;20892;-74
2023/05/14 00:45:44;;;;;;;5.97;5.47;;;;;;;15.76;69.66;100358.66;5037528;28;20421;-74
2023/05/14 00:48:10;;;;;;;5.57;5.13;;;;;;;15.78;69.55;100359.19;5040786;28;20405;-75
2023/05/14 00:50:35;;;;;;;5.77;5.17;;;;;;;15.78;69.72;100358.34;5036193;28;20961;-75
2023/05/14 00:53:00;;;;;;;6.07;5.47;;;;;;;15.72;69.83;100356.75;5024713;28;20482;-74
2023/05/14 00:55:29;;;;;;;5.53;5.03;;;;;;;15.71;69.95;100357.88;5050612;28;20478;-74
2023/05/14 00:57:56;;;;;;;5.57;5.05;;;;;;;15.74;69.97;100355.38;5049465;28;20807;-75
2023/05/14 01:00:22;;;;;;;5.65;5.15;;;;;;;15.74;70.02;100360.03;5050062;28;20386;-74
2023/05/14 01:02:47;;;;;;;4.87;4.27;;;;;;;15.75;70.16;100353.47;5024848;28;20436;-74
2023/05/14 01:05:12;;;;;;;6.17;4.43;;;;;;;15.74;69.95;100357.31;5050639;28;20400;-74
2023/05/14 01:07:44;;;;;;;9.07;4.30;;;;;;;15.72;69.94;100349.38;5049247;28;20440;-74
2023/05/14 01:10:20;;;;;;;4.75;4.30;;;;;;;15.70;70.09;100351.59;5050211;28;20389;-74
2023/05/14 01:13:03;;;;;;;4.57;4.28;;;;;;;15.70;70.34;100348.03;5034319;28;20417;-74
2023/05/14 01:15:32;;;;;;;5.13;4.63;;;;;;;15.69;70.24;100349.94;5033077;28;20407;-74
2023/05/14 01:18:07;;;;;;;4.82;4.38;;;;;;;15.67;70.23;100346.69;5029789;28;20410;-74
2023/05/14 01:20:33;;;;;;;4.78;4.43;;;;;;;15.67;70.33;100352.16;5045561;28;20407;-74
2023/05/14 01:22:58;;;;;;;5.87;5.30;;;;;;;15.69;70.22;100354.59;5048951;28;20402;-74
2023/05/14 01:25:25;;;;;;;6.55;5.65;;;;;;;15.68;70.66;100348.31;5048879;28;20745;-74
2023/05/14 01:28:07;;;;;;;5.97;5.47;;;;;;;15.68;70.49;100351.03;5046488;28;20397;-74
2023/05/14 01:30:35;;;;;;;5.30;4.90;;;;;;;15.71;70.45;100347.75;5044938;28;20948;-74
2023/05/14 01:33:05;;;;;;;5.67;5.17;;;;;;;15.76;70.41;100345.00;5036133;28;20425;-74
2023/05/14 01:35:30;;;;;;;5.78;5.28;;;;;;;15.78;70.35;100350.97;5043064;28;20866;-74
2023/05/14 01:37:58;;;;;;;6.30;5.22;;;;;;;15.78;70.29;100350.16;5044177;28;20425;-74
2023/05/14 01:40:26;;;;;;;6.22;5.57;;;;;;;15.77;70.08;100346.63;5049602;28;20412;-74
2023/05/14 01:42:52;;;;;;;6.13;5.63;;;;;;;15.77;70.43;100348.56;5049976;28;20653;-74
2023/05/14 01:45:22;;;;;;;5.70;5.20;;;;;;;15.73;70.17;100345.56;5045532;28;20479;-74
2023/05/14 01:47:47;;;;;;;5.70;5.20;;;;;;;15.76;70.24;100347.72;5016627;28;20409;-74
2023/05/14 01:50:13;;;;;;;6.23;5.73;;;;;;;15.78;70.23;100348.25;5049564;28;20444;-74
2023/05/14 01:52:38;;;;;;;5.83;5.33;;;;;;;15.78;70.29;100358.34;5043082;28;20395;-74
2023/05/14 01:55:04;;;;;;;5.90;5.40;;;;;;;15.73;70.33;100351.03;5042140;28;20884;-74
2023/05/14 01:57:30;;;;;;;6.40;5.90;;;;;;;15.78;70.42;100352.91;5026114;28;20419;-74
2023/05/14 01:59:55;;;;;;;6.00;5.50;;;;;;;15.75;70.46;100348.00;5044729;28;20429;-74
2023/05/14 02:02:20;;;;;;;6.83;6.17;;;;;;;15.75;70.56;100359.75;5027419;28;21016;-74
2023/05/14 02:04:45;;;;;;;6.20;5.30;;;;;;;15.71;70.48;100353.19;5049483;28;20396;-74
2023/05/14 02:07:11;;;;;;;5.93;5.43;;;;;;;15.66;70.51;100346.97;5028803;28;20444;-74
2023/05/14 02:09:36;;;;;;;5.95;5.45;;;;;;;15.66;70.88;100342.31;5042997;28;20422;-74
2023/05/14 02:12:01;;;;;;;5.63;5.23;;;;;;;15.62;71.02;100343.97;5049416;28;20386;-74
2023/05/14 02:14:27;;;;;;;5.60;5.17;;;;;;;15.64;71.28;100339.06;5047802;28;20405;-74
2023/05/14 02:16:52;;;;;;;5.77;5.13;;;;;;;15.67;71.08;100343.13;5035283;28;20488;-74
2023/05/14 02:19:17;;;;;;;5.90;5.40;;;;;;;15.68;71.14;100344.75;5033200;28;20409;-74
2023/05/14 02:21:43;;;;;;;7.77;4.47;;;;;;;15.66;71.18;100336.84;5045976;28;20505;-74
2023/05/14 02:24:08;;;;;;;5.03;4.53;;;;;;;15.64;71.23;100332.78;5036960;28;20389;-74
2023/05/14 02:26:33;;;;;;;5.93;4.30;;;;;;;15.61;71.34;100341.53;5036705;28;20815;-74
2023/05/14 02:28:59;;;;;;;4.93;4.50;;;;;;;15.60;71.29;100334.44;5033567;28;20506;-74
2023/05/14 02:31:24;;;;;;;5.73;4.70;;;;;;;15.59;71.56;100333.59;5023538;28;20419;-74
2023/05/14 02:33:49;;;;;;;5.50;5.00;;;;;;;15.56;71.55;100337.72;5035429;28;20459;-74
2023/05/14 02:36:14;;;;;;;4.77;4.37;;;;;;;15.57;71.65;100344.00;5046588;28;20390;-74
2023/05/14 02:38:40;;;;;;;5.30;4.90;;;;;;;15.57;71.49;100347.56;5041866;28;20393;-74
2023/05/14 02:41:05;;;;;;;5.30;4.90;;;;;;;15.58;71.61;100351.91;5046235;28;20786;-74
2023/05/14 02:43:30;;;;;;;5.70;5.20;;;;;;;15.58;71.44;100345.63;5048849;28;20393;-74
2023/05/14 02:45:56;;;;;;;6.77;4.70;;;;;;;15.52;71.58;100353.03;5041776;28;20405;-74
2023/05/14 02:48:21;;;;;;;6.32;5.07;;;;;;;15.50;71.80;100344.31;5042253;28;20500;-75
2023/05/14 02:50:48;;;;;;;4.70;4.37;;;;;;;15.52;71.68;100350.28;5046071;28;20882;-74
2023/05/14 02:53:13;;;;;;;4.85;4.45;;;;;;;15.54;71.58;100352.75;5048790;28;20864;-74
2023/05/14 02:55:39;;;;;;;5.10;4.67;;;;;;;15.54;71.58;100345.38;5048828;28;20401;-74
2023/05/14 02:58:04;;;;;;;4.90;4.20;;;;;;;15.55;71.62;100347.00;5046077;28;20413;-74
2023/05/14 03:00:29;;;;;;;4.53;4.13;;;;;;;15.50;71.76;100344.31;5028042;28;20403;-74
2023/05/14 03:02:54;;;;;;;4.37;4.00;;;;;;;15.49;71.90;100352.78;5046981;28;20410;-74
2023/05/14 03:05:20;;;;;;;4.03;3.80;;;;;;;15.48;72.01;100348.41;5048647;28;20473;-74
2023/05/14 03:07:45;;;;;;;4.50;4.20;;;;;;;15.48;72.06;100342.94;5046374;28;20765;-74
2023/05/14 03:10:11;;;;;;;4.00;3.70;;;;;;;15.49;71.75;100339.94;5047860;28;20863;-74
2023/05/14 03:12:36;;;;;;;4.20;3.90;;;;;;;15.51;71.59;100339.66;5044928;28;20395;-74
2023/05/14 03:15:01;;;;;;;4.20;4.00;;;;;;;15.50;71.61;100347.03;5030824;28;20380;-74
2023/05/14 03:17:26;;;;;;;4.30;3.80;;;;;;;15.44;71.64;100334.44;5027342;28;20503;-74
2023/05/14 03:19:52;;;;;;;4.43;4.03;;;;;;;15.43;71.63;100337.47;5040109;28;20486;-74
2023/05/14 03:22:17;;;;;;;4.07;3.70;;;;;;;15.36;71.81;100332.31;5042433;28;20774;-74
2023/05/14 03:24:42;;;;;;;5.57;3.80;;;;;;;15.38;71.77;100340.22;5048563;28;20393;-74
2023/05/14 03:27:08;;;;;;;4.00;3.63;;;;;;;15.36;71.77;100342.41;5034368;28;20415;-74
2023/05/14 03:29:33;;;;;;;4.53;4.10;;;;;;;15.33;71.51;100338.34;5036631;28;20428;-74
2023/05/14 03:31:58;;;;;;;4.27;3.97;;;;;;;15.44;71.53;100336.38;5046419;28;20457;-74
2023/05/14 03:34:24;;;;;;;5.60;4.00;;;;;;;15.50;71.13;100341.59;5047458;28;20386;-74
2023/05/14 03:36:49;;;;;;;4.20;3.60;;;;;;;15.44;71.29;100347.31;5041036;28;20475;-74
2023/05/14 03:39:18;;;;;;;4.32;4.10;;;;;;;15.35;71.37;100347.06;5035355;28;20752;-74
2023/05/14 03:41:46;;;;;;;5.57;3.92;;;;;;;15.33;71.74;100346.53;5049481;28;20491;-74
2023/05/14 03:44:12;;;;;;;4.55;4.15;;;;;;;15.17;71.95;100353.13;5028413;28;20405;-74
2023/05/14 03:46:37;;;;;;;4.70;4.30;;;;;;;15.15;72.40;100341.66;5048474;28;20412;-74
2023/05/14 03:49:02;;;;;;;4.23;3.93;;;;;;;15.16;72.52;100343.31;5037042;28;20389;-74
2023/05/14 03:51:28;;;;;;;4.77;4.00;;;;;;;15.11;72.74;100345.25;5040532;28;20750;-74
2023/05/14 03:53:53;;;;;;;6.70;4.30;;;;;;;15.03;72.78;100341.97;5049788;28;20741;-74
2023/05/14 03:56:18;;;;;;;4.20;3.90;;;;;;;15.00;72.99;100334.34;5050709;28;20390;-73
2023/05/14 03:58:44;;;;;;;4.50;4.20;;;;;;;15.10;72.46;100343.59;5037668;28;20420;-74
2023/05/14 04:01:09;;;;;;;4.75;4.30;;;;;;;15.10;72.39;100340.88;5051494;28;20413;-74
2023/05/14 04:03:34;;;;;;;4.30;4.00;;;;;;;15.08;72.70;100344.69;5049097;28;20390;-74
2023/05/14 04:06:00;;;;;;;6.67;4.13;;;;;;;15.04;72.64;100335.44;5051737;28;20385;-74
2023/05/14 04:08:25;;;;;;;4.23;4.00;;;;;;;15.10;72.42;100338.97;5025456;28;20412;-74
2023/05/14 04:10:51;;;;;;;4.50;4.10;;;;;;;15.10;72.17;100344.41;5040296;28;20470;-74
2023/05/14 04:13:16;;;;;;;4.05;3.75;;;;;;;15.13;72.25;100343.03;5031037;28;20816;-74
2023/05/14 04:15:41;;;;;;;4.47;4.17;;;;;;;15.09;72.31;100334.59;5047514;28;20451;-74
2023/05/14 04:18:06;;;;;;;4.40;4.10;;;;;;;15.08;72.15;100341.16;5043821;28;20752;-74
2023/05/14 04:20:32;;;;;;;7.05;4.50;;;;;;;15.03;72.05;100341.16;5034710;28;20424;-74
2023/05/14 04:22:57;;;;;;;5.20;4.30;;;;;;;14.96;71.93;100344.19;5044659;28;20451;-74
2023/05/14 04:25:23;;;;;;;7.57;4.07;;;;;;;14.87;72.08;100345.84;5048258;28;20399;-74
2023/05/14 04:27:48;;;;;;;4.77;4.23;;;;;;;14.77;72.28;100343.13;5042490;28;20435;-74
2023/05/14 04:30:13;;;;;;;5.53;4.17;;;;;;;14.76;72.27;100352.41;5042049;28;20386;-74
2023/05/14 04:32:39;;;;;;;4.40;4.05;;;;;;;14.87;71.80;100350.47;5049986;28;20394;-74
2023/05/14 04:35:05;;;;;;;4.30;4.00;;;;;;;14.87;71.48;100351.28;5048281;28;20387;-74
2023/05/14 04:37:31;;;;;;;7.53;6.20;;;;;;;14.85;71.45;100350.72;5043923;28;20411;-74
2023/05/14 04:39:57;;;;;;;12.75;9.55;;;;;;;14.73;71.51;100352.94;5042188;28;20745;-74
2023/05/14 04:42:22;;;;;;;11.83;9.40;;;;;;;14.66;71.71;100352.41;5034333;28;20487;-74
2023/05/14 04:44:48;;;;;;;8.55;7.38;;;;;;;14.63;71.42;100343.94;5061501;28;20768;-74
2023/05/14 04:47:13;;;;;;;8.83;7.40;;;;;;;14.49;71.56;100346.41;5048749;28;20432;-74
2023/05/14 04:49:38;;;;;;;8.60;7.77;;;;;;;14.43;71.63;100352.94;5047781;28;20885;-74
2023/05/14 04:52:05;;;;;;;12.20;9.83;;;;;;;14.47;71.48;100354.06;5050297;28;20397;-74
2023/05/14 04:54:30;;;;;;;17.95;12.73;;;;;;;14.51;71.36;100360.59;5048067;28;20497;-74
2023/05/14 04:56:56;;;;;;;6.83;6.17;;;;;;;14.58;71.11;100357.59;5026521;28;20480;-74
2023/05/14 04:59:21;;;;;;;5.25;4.75;;;;;;;14.60;70.56;100356.22;5027059;28;20972;-74
2023/05/14 05:01:47;;;;;;;6.07;4.87;;;;;;;14.69;70.50;100357.31;5043585;28;20405;-73
2023/05/14 05:04:12;;;;;;;5.23;4.60;;;;;;;14.66;70.48;100357.84;5050169;28;20865;-74
2023/05/14 05:06:37;;;;;;;5.63;5.00;;;;;;;14.57;70.49;100359.50;5032873;28;20417;-74
2023/05/14 05:09:03;;;;;;;4.90;4.50;;;;;;;14.55;71.00;100362.50;5037444;28;20756;-74
2023/05/14 05:11:28;;;;;;;10.45;4.95;;;;;;;14.60;70.72;100353.50;5040786;28;20729;-74
2023/05/14 05:13:53;;;;;;;4.47;4.17;;;;;;;14.60;70.91;100355.41;5049113;28;20393;-74
2023/05/14 05:16:19;;;;;;;4.97;4.47;;;;;;;14.68;70.70;100355.69;5033277;28;20427;-74
2023/05/14 05:18:44;;;;;;;4.40;4.10;;;;;;;14.79;70.76;100356.47;5050383;28;20424;-74
2023/05/14 05:21:09;;;;;;;4.87;4.47;;;;;;;14.84;70.64;100360.03;5050074;28;20864;-74
2023/05/14 05:23:35;;;;;;;4.97;4.57;;;;;;;14.84;70.95;100356.47;5048961;28;20405;-74
2023/05/14 05:26:00;;;;;;;4.53;4.13;;;;;;;14.84;70.39;100354.56;5037503;28;20822;-74
2023/05/14 05:28:25;;;;;;;5.00;4.23;;;;;;;14.93;70.52;100357.56;5041895;28;20409;-74
2023/05/14 05:30:50;;;;;;;4.23;3.93;;;;;;;14.97;70.40;100361.38;5048703;28;20405;-74
2023/05/14 05:33:16;;;;;;;5.00;4.60;;;;;;;15.05;69.75;100356.16;5032802;28;20420;-74
2023/05/14 05:35:42;;;;;;;4.00;3.70;;;;;;;15.16;69.34;100353.41;5026427;28;20402;-74
2023/05/14 05:38:07;;;;;;;4.90;3.85;;;;;;;15.23;68.87;100364.84;5043867;28;20399;-74
2023/05/14 05:40:32;;;;;;;4.57;4.17;;;;;;;15.22;68.89;100364.03;5034936;28;20409;-74
2023/05/14 05:42:57;;;;;;;4.10;3.80;;;;;;;15.25;68.56;100362.66;5041377;28;20493;-74
2023/05/14 05:45:23;;;;;;;4.53;4.13;;;;;;;15.22;68.26;100361.28;5049784;28;20397;-74
2023/05/14 05:47:48;;;;;;;3.90;3.60;;;;;;;15.27;67.97;100352.28;5035634;28;20407;-74
2023/05/14 05:50:13;;;;;;;4.50;4.10;;;;;;;15.38;67.80;100362.06;5036836;28;20411;-74
2023/05/14 05:52:39;;;;;;;3.77;3.47;;;;;;;15.51;67.28;100362.31;5024656;28;20407;-73
2023/05/14 05:55:05;;;;;;;3.80;3.50;;;;;;;15.60;67.07;100364.47;5039205;28;20395;-73
2023/05/14 05:57:33;;;;;;;4.40;4.10;;;;;;;15.68;66.35;100352.94;5028043;28;20403;-73
2023/05/14 05:59:58;;;;;;;4.50;4.10;;;;;;;15.73;66.18;100355.66;5048565;28;20391;-74
2023/05/14 06:02:24;;;;;;;4.43;4.10;;;;;;;15.63;66.28;100356.53;5034227;28;20904;-74
2023/05/14 06:04:52;;;;;;;4.22;3.75;;;;;;;15.69;65.87;100354.59;5036824;28;20407;-73
2023/05/14 06:07:17;;;;;;;3.70;3.50;;;;;;;15.67;65.80;100359.53;5028207;28;20750;-73
2023/05/14 06:09:42;;;;;;;5.90;4.63;;;;;;;15.72;65.18;100348.56;5032234;28;20425;-74
2023/05/14 06:12:08;;;;;;;4.73;4.33;;;;;;;15.72;65.12;100354.84;5032095;28;20402;-74
2023/05/14 06:14:33;;;;;;;4.60;4.20;;;;;;;15.83;64.89;100355.63;5031586;28;20465;-73
2023/05/14 06:16:58;;;;;;;6.45;4.68;;;;;;;15.92;64.64;100356.66;5032397;28;20411;-72
2023/05/14 06:19:23;;;;;;;4.90;4.50;;;;;;;16.00;64.29;100350.59;5031734;28;20465;-73
2023/05/14 06:21:49;;;;;;;4.43;4.13;;;;;;;15.98;64.08;100359.06;5030051;28;20789;-75
2023/05/14 06:24:15;;;;;;;4.43;4.03;;;;;;;16.04;63.92;100357.94;5035114;28;20406;-74
2023/05/14 06:26:43;;;;;;;6.25;5.22;;;;;;;16.02;63.96;100354.69;5042952;28;20447;-75
2023/05/14 06:29:08;;;;;;;4.72;4.32;;;;;;;16.01;63.55;100354.94;5037368;28;20974;-75
2023/05/14 06:31:33;;;;;;;5.20;4.70;;;;;;;16.07;63.53;100354.63;5041544;28;20405;-72
2023/05/14 06:33:59;;;;;;;4.70;4.30;;;;;;;16.12;63.78;100361.16;5033902;28;20877;-74
2023/05/14 06:36:24;;;;;;;4.63;4.03;;;;;;;16.15;63.45;100347.75;5041614;28;20404;-72
2023/05/14 06:38:49;;;;;;;4.50;4.03;;;;;;;16.19;63.09;100356.22;5046234;28;20744;-73
2023/05/14 06:41:15;;;;;;;5.37;4.73;;;;;;;16.25;63.09;100358.63;5046950;28;20425;-74
2023/05/14 06:43:43;;;;;;;11.48;7.95;;;;;;;16.26;63.09;100352.06;5045059;28;20440;-74
2023/05/14 06:46:09;;;;;;;7.73;5.30;;;;;;;16.26;63.21;100354.78;5032012;28;20407;-74
2023/05/14 06:48:35;;;;;;;4.77;4.33;;;;;;;16.28;62.97;100357.22;5044494;28;20401;-74
2023/05/14 06:51:02;;;;;;;4.88;4.38;;;;;;;16.12;63.17;100345.59;5032278;28;20443;-74
2023/05/14 06:53:27;;;;;;;4.93;4.53;;;;;;;16.16;63.34;100356.78;5038067;28;20524;-74
2023/05/14 06:55:52;;;;;;;4.53;4.17;;;;;;;16.21;63.39;100351.25;5028545;28;20494;-72
2023/05/14 06:58:17;;;;;;;4.93;4.50;;;;;;;16.25;63.29;100346.88;5039589;28;20447;-72
2023/05/14 07:00:43;;;;;;;4.20;3.90;;;;;;;16.28;63.37;100338.91;5030303;28;20406;-72
2023/05/14 07:03:08;;;;;;;4.73;4.33;;;;;;;16.28;63.68;100338.09;5029987;28;20424;-74
2023/05/14 07:05:33;;;;;;;5.37;4.27;;;;;;;16.26;64.02;100340.28;5032003;28;20410;-71
2023/05/14 07:07:59;;;;;;;5.07;4.40;;;;;;;16.21;64.43;100346.63;5032983;28;20909;-75
2023/05/14 07:10:24;;;;;;;4.67;4.20;;;;;;;16.27;64.58;100348.19;5028220;28;20399;-74
2023/05/14 07:12:49;;;;;;;4.87;4.37;;;;;;;16.32;64.49;100350.09;5022646;28;20478;-74
2023/05/14 07:15:15;;;;;;;5.20;4.80;;;;;;;16.32;64.24;100342.72;5028377;28;20410;-74
2023/05/14 07:17:40;;;;;;;5.40;4.77;;;;;;;16.36;63.81;100351.16;5035086;28;20438;-73
2023/05/14 07:20:06;;;;;;;4.73;4.33;;;;;;;16.41;63.62;100342.91;5037831;28;20415;-75
2023/05/14 07:22:31;;;;;;;4.75;4.35;;;;;;;16.35;63.37;100338.59;5038106;28;20443;-75
2023/05/14 07:24:56;;;;;;;5.40;4.90;;;;;;;16.30;63.66;100338.63;5050445;28;20385;-74
2023/05/14 07:27:21;;;;;;;5.27;4.77;;;;;;;16.32;63.75;100339.16;5031419;28;21141;-72
2023/05/14 07:29:49;;;;;;;5.30;4.80;;;;;;;16.29;63.73;100326.06;5021941;28;20408;-72
2023/05/14 07:32:14;;;;;;;5.38;3.92;;;;;;;16.30;63.67;100325.75;5048503;28;20746;-73
2023/05/14 07:34:39;;;;;;;5.40;4.90;;;;;;;16.32;63.43;100325.47;5039303;28;20393;-75
2023/05/14 07:37:04;;;;;;;4.93;4.53;;;;;;;16.32;63.36;100323.56;5042383;28;22828;-73
2023/05/14 07:39:30;;;;;;;4.20;3.90;;;;;;;16.32;63.60;100323.56;5048065;28;20892;-72
2023/05/14 07:41:55;;;;;;;5.13;4.60;;;;;;;16.37;63.23;100314.47;5038417;28;20456;-72
2023/05/14 07:44:20;;;;;;;4.50;4.10;;;;;;;16.41;63.40;100318.28;5039698;28;20405;-75
2023/05/14 07:46:46;;;;;;;5.60;5.03;;;;;;;16.47;63.06;100315.22;5049525;28;20779;-73
2023/05/14 07:49:11;;;;;;;4.57;4.20;;;;;;;16.47;63.09;100317.97;5044277;28;20438;-74
2023/05/14 07:51:37;;;;;;;4.60;4.20;;;;;;;16.46;63.01;100310.06;5048262;28;20480;-73
2023/05/14 07:54:02;;;;;;;5.20;4.80;;;;;;;16.56;62.81;100310.00;5036293;28;20398;-72
2023/05/14 07:56:27;;;;;;;4.53;4.13;;;;;;;16.71;62.70;100300.81;5041972;28;20401;-75
2023/05/14 07:58:52;;;;;;;5.07;4.68;;;;;;;16.72;62.40;100306.00;5039266;28;20389;-75
2023/05/14 08:01:18;;;;;;;4.97;4.57;;;;;;;16.78;62.25;100306.75;5035818;28;20482;-73
2023/05/14 08:03:43;;;;;;;5.00;4.60;;;;;;;16.80;62.36;100305.34;5037793;28;20481;-74
2023/05/14 08:06:09;;;;;;;4.53;4.13;;;;;;;16.84;62.31;100306.41;5041784;28;20437;-73
2023/05/14 08:08:35;;;;;;;4.60;3.80;;;;;;;16.83;62.09;100304.78;5039457;28;20502;-73
2023/05/14 08:11:01;;;;;;;5.10;4.63;;;;;;;16.87;62.38;100307.75;5045971;28;20476;-73
2023/05/14 08:13:26;;;;;;;4.80;4.30;;;;;;;16.88;62.11;100299.25;5032714;28;20465;-72
2023/05/14 08:15:52;;;;;;;4.93;4.53;;;;;;;16.90;62.28;100299.78;5038845;28;20401;-74
2023/05/14 08:18:17;;;;;;;4.73;4.33;;;;;;;16.90;61.94;100299.78;5038417;28;20394;-74
2023/05/14 08:20:42;;;;;;;4.50;4.20;;;;;;;16.97;61.70;100300.25;5018776;28;20404;-72
2023/05/14 08:23:08;;;;;;;4.87;4.20;;;;;;;16.98;61.58;100299.16;5027541;28;20414;-74
2023/05/14 08:25:34;;;;;;;5.17;4.67;;;;;;;17.07;61.18;100289.19;5027152;28;20486;-73
2023/05/14 08:28:02;;;;;;;5.18;4.20;;;;;;;17.21;61.15;100288.47;5026684;28;20573;-73
2023/05/14 08:30:28;;;;;;;4.57;4.10;;;;;;;17.38;60.71;100286.06;5009529;28;20422;-73
2023/05/14 08:32:53;;;;;;;5.83;5.27;;;;;;;17.52;60.63;100289.69;5010797;28;20409;-73
2023/05/14 08:35:19;;;;;;;6.57;6.00;;;;;;;17.73;60.13;100285.63;5006956;28;20878;-73
2023/05/14 08:37:46;;;;;;;4.77;4.30;;;;;;;17.89;59.71;100286.19;5012673;28;20427;-74
2023/05/14 08:40:12;;;;;;;4.88;4.47;;;;;;;18.10;59.45;100282.84;5011099;28;20549;-73
2023/05/14 08:42:41;;;;;;;4.43;3.93;;;;;;;18.34;58.42;100287.41;5013129;28;20419;-74
2023/05/14 08:45:33;;;;;;;4.00;3.58;;;;;;;18.52;57.62;100281.06;5014847;28;20410;-73
2023/05/14 08:48:04;;;;;;;4.32;3.95;;;;;;;18.73;57.08;100287.84;5027332;28;20501;-73
2023/05/14 08:50:30;;;;;;;4.30;3.97;;;;;;;18.93;56.76;100287.47;5033449;28;20403;-73
2023/05/14 08:52:55;;;;;;;3.53;3.23;;;;;;;19.10;56.71;100282.16;5037062;28;20766;-74
2023/05/14 08:55:21;;;;;;;3.83;3.53;;;;;;;19.26;55.82;100273.63;5024748;28;20403;-73
2023/05/14 08:57:46;;;;;;;3.25;3.05;;;;;;;19.35;54.93;100274.50;5031544;28;20402;-73
2023/05/14 09:00:13;;;;;;;3.70;3.40;;;;;;;19.37;54.72;100281.31;5036528;28;20404;-73
2023/05/14 09:02:40;;;;;;;3.53;3.33;;;;;;;19.52;54.59;100280.22;5036844;28;20418;-73
2023/05/14 09:05:08;;;;;;;3.78;3.58;;;;;;;19.71;53.90;100272.63;5031967;28;20430;-73
2023/05/14 09:07:34;;;;;;;3.50;3.30;;;;;;;20.01;53.14;100274.69;5033461;28;20418;-74
2023/05/14 09:10:00;;;;;;;3.42;3.15;;;;;;;20.17;52.70;100272.38;5034782;28;20845;-73
2023/05/14 09:12:26;;;;;;;3.45;3.15;;;;;;;20.39;52.24;100263.31;5029245;28;20973;-73
2023/05/14 09:14:51;;;;;;;4.83;3.63;;;;;;;20.58;51.57;100258.41;5032970;28;20560;-72
2023/05/14 09:17:17;;;;;;;3.57;2.83;;;;;;;20.75;51.21;100265.97;5032644;28;20422;-73
2023/05/14 09:19:46;;;;;;;3.23;3.03;;;;;;;20.39;50.93;100263.31;5047724;28;20407;-73
2023/05/14 09:22:13;;;;;;;3.45;3.15;;;;;;;20.13;51.54;100263.09;5033712;28;21058;-73
2023/05/14 09:24:39;;;;;;;3.00;2.80;;;;;;;20.12;51.59;100259.53;5028955;28;20851;-73
2023/05/14 09:27:05;;;;;;;3.03;2.73;;;;;;;20.08;51.71;100263.25;5023761;28;20506;-73
2023/05/14 09:29:31;;;;;;;3.15;2.92;;;;;;;19.82;51.27;100246.53;5026578;28;20458;-73
2023/05/14 09:31:57;;;;;;;2.85;2.70;;;;;;;20.19;50.95;100248.91;5023948;28;20450;-73
2023/05/14 09:34:28;;;;;;;2.97;2.78;;;;;;;20.92;50.26;100241.22;5025192;28;20411;-73
2023/05/14 09:37:02;;;;;;;2.73;2.57;;;;;;;21.70;48.36;100241.09;5016931;28;20485;-73
2023/05/14 09:39:29;;;;;;;6.28;3.00;;;;;;;22.17;46.94;100246.78;5023262;28;20423;-73
2023/05/14 09:41:55;;;;;;;615.38;174.68;;;;;;;22.45;46.11;100250.78;5027665;28;20415;-73
2023/05/14 09:44:25;;;;;;;1321.60;319.48;;;;;;;23.01;45.79;100248.84;5027070;28;20414;-73
2023/05/14 09:46:51;;;;;;;1375.45;336.38;;;;;;;23.75;44.45;100249.03;5042925;28;20406;-73
2023/05/14 09:49:17;;;;;;;1999.90;285.73;;;;;;;24.34;42.65;100249.66;5048001;28;20868;-73
2023/05/14 09:51:42;;;;;;;1999.90;999.90;;;;;;;24.94;41.99;100249.00;5035005;28;20412;-73
2023/05/14 09:54:08;;;;;;;1999.90;999.90;;;;;;;25.78;39.62;100247.31;5042221;28;20424;-72
2023/05/14 09:56:35;;;;;;;1999.90;999.90;;;;;;;26.78;37.31;100254.50;5044922;28;20405;-73
2023/05/14 09:59:00;;;;;;;1999.90;999.90;;;;;;;26.58;37.24;100245.22;5049444;28;20886;-74
2023/05/14 10:01:31;;;;;;;1999.90;999.90;;;;;;;27.30;36.70;100243.06;5046873;28;20409;-73
2023/05/14 10:03:57;;;;;;;1804.88;839.63;;;;;;;27.31;35.92;100244.69;5023698;28;20392;-73
2023/05/14 10:06:27;;;;;;;1313.05;806.03;;;;;;;26.28;36.96;100247.59;5044652;28;20405;-73
2023/05/14 10:08:55;;;;;;;536.33;443.38;;;;;;;26.70;36.93;100239.63;5036232;28;20410;-73
2023/05/14 10:11:24;;;;;;;3.38;3.22;;;;;;;27.22;35.99;100242.13;5045172;28;20437;-73
2023/05/14 10:13:58;;;;;;;3.50;2.90;;;;;;;25.69;37.04;100241.09;5049355;28;20389;-73
2023/05/14 10:16:30;;;;;;;26.35;24.70;;;;;;;24.79;38.93;100238.56;5039114;28;20916;-73
2023/05/14 10:19:02;;;;;;;947.55;684.20;;;;;;;24.27;39.86;100244.69;5042700;28;20389;-73
2023/05/14 10:21:30;;;;;;;1999.90;999.90;;;;;;;23.47;41.41;100243.22;5046696;28;20416;-73
2023/05/14 10:23:57;;;;;;;1999.90;999.90;;;;;;;23.09;42.77;100239.66;5049123;28;20388;-73
2023/05/14 10:26:22;;;;;;;1999.90;999.90;;;;;;;22.78;43.22;100236.41;5031118;28;20800;-73
2023/05/14 10:28:55;;;;;;;1999.90;999.90;;;;;;;22.44;43.28;100224.31;5042728;28;20386;-73
2023/05/14 10:31:53;;;;;;;1999.90;999.90;;;;;;;22.38;44.01;100235.88;5048180;28;20891;-73
2023/05/14 10:34:32;;;;;;;1999.90;999.90;;;;;;;25.49;39.94;100228.19;5048871;28;20757;-73
2023/05/14 10:37:01;;;;;;;1999.90;999.90;;;;;;;26.16;37.77;100232.94;5031893;28;20449;-73
2023/05/14 10:39:46;;;;;;;1656.45;883.65;;;;;;;25.83;37.67;100226.81;5047302;28;20405;-73
2023/05/14 10:42:25;;;;;;;1873.50;907.17;;;;;;;24.74;39.13;100224.91;5046893;28;20511;-73
2023/05/14 10:44:54;;;;;;;1121.55;708.33;;;;;;;24.09;40.00;100220.25;5041060;28;20386;-73
2023/05/14 10:47:20;;;;;;;1999.90;999.90;;;;;;;23.75;40.67;100221.34;5025146;28;20402;-73
2023/05/14 10:49:48;;;;;;;1999.90;999.90;;;;;;;23.69;41.11;100222.72;5048521;28;20412;-73
2023/05/14 10:52:16;;;;;;;1999.90;999.90;;;;;;;24.96;39.66;100212.63;5046205;28;20903;-73
2023/05/14 10:54:56;;;;;;;1999.90;999.90;;;;;;;24.37;40.07;100217.72;5042592;28;20402;-73
2023/05/14 10:57:25;;;;;;;1999.90;999.90;;;;;;;24.25;40.02;100211.00;5026887;28;20404;-73
2023/05/14 10:59:55;;;;;;;1999.90;999.90;;;;;;;23.80;40.76;100207.34;5048636;28;20400;-73
2023/05/14 11:02:26;;;;;;;1999.90;740.05;;;;;;;23.40;41.68;100215.28;5046517;28;20421;-73
2023/05/14 11:04:56;;;;;;;1999.90;999.90;;;;;;;23.40;41.96;100215.28;5019549;28;20385;-73
2023/05/14 11:07:26;;;;;;;1999.90;999.90;;;;;;;23.43;41.81;100206.31;5030713;28;20400;-73
2023/05/14 11:09:52;;;;;;;1999.90;999.90;;;;;;;23.30;41.57;100210.13;5047202;28;20915;-73
2023/05/14 11:12:18;;;;;;;1999.90;999.90;;;;;;;23.15;42.30;100207.94;5044621;28;20773;-73
2023/05/14 11:14:44;;;;;;;1999.90;999.90;;;;;;;23.41;41.50;100205.03;5048474;28;20396;-73
2023/05/14 11:17:09;;;;;;;1999.90;999.90;;;;;;;24.12;40.33;100200.22;5038934;28;20401;-73